Time;durP1;ratioP1;P1;durP2;ratioP2;P2;SDS_P1;SDS_P2;PMS_P1;PMS_P2;Temp;Humidity;BMP_temperature;BMP_pressure;BME280_temperature;BME280_humidity;BME280_pressure;Samples;Min_cycle;Max_cycle;Signal;HPM_P1;HPM_P2
2023/05/18 00:02:03;;;;;;;4.38;1.60;;;15.80;72.60;;;;;;4954634;29;20028;-81
2023/05/18 00:04:30;;;;;;;5.88;1.77;;;15.90;72.60;;;;;;4940686;29;20028;-82
2023/05/18 00:06:55;;;;;;;3.58;1.50;;;15.80;72.50;;;;;;4942857;29;20380;-81
2023/05/18 00:09:25;;;;;;;4.78;1.60;;;15.80;72.40;;;;;;4946918;29;20037;-81
2023/05/18 00:11:51;;;;;;;4.88;1.80;;;15.70;72.50;;;;;;4963660;29;20038;-81
2023/05/18 00:14:17;;;;;;;3.88;1.60;;;15.70;72.60;;;;;;4946058;29;20027;-81
2023/05/18 00:16:43;;;;;;;5.20;1.77;;;15.70;72.50;;;;;;4946271;29;20568;-82
2023/05/18 00:19:08;;;;;;;4.63;1.67;;;15.70;72.60;;;;;;4962968;29;20037;-83
2023/05/18 00:21:34;;;;;;;4.28;1.63;;;15.70;72.60;;;;;;4946254;29;20023;-83
2023/05/18 00:24:00;;;;;;;4.15;1.67;;;15.70;72.60;;;;;;4962953;29;20039;-81
2023/05/18 00:26:26;;;;;;;3.58;1.40;;;15.70;72.60;;;;;;4945233;29;20549;-80
2023/05/18 00:28:51;;;;;;;4.82;1.90;;;15.70;72.60;;;;;;4942189;29;20065;-82
2023/05/18 00:31:17;;;;;;;3.70;1.50;;;15.70;72.50;;;;;;4941742;29;20019;-81
2023/05/18 00:33:44;;;;;;;4.13;1.50;;;15.70;72.40;;;;;;4961960;29;20027;-82
2023/05/18 00:36:10;;;;;;;4.22;1.85;;;15.70;72.40;;;;;;4961684;29;20107;-82
2023/05/18 00:38:35;;;;;;;4.60;1.73;;;15.60;72.00;;;;;;4943277;29;20051;-81
2023/05/18 00:41:01;;;;;;;4.57;1.50;;;15.70;72.30;;;;;;4940596;29;20435;-81
2023/05/18 00:43:26;;;;;;;4.68;1.80;;;15.70;72.30;;;;;;4940360;29;20027;-81
2023/05/18 00:45:52;;;;;;;5.55;1.63;;;15.60;72.10;;;;;;4942657;29;20035;-84
2023/05/18 00:48:17;;;;;;;4.63;1.52;;;15.60;72.20;;;;;;4944154;29;20030;-82
2023/05/18 00:50:43;;;;;;;4.40;1.70;;;15.60;72.10;;;;;;4942988;29;20035;-83
2023/05/18 00:53:09;;;;;;;5.55;2.05;;;15.60;72.10;;;;;;4960576;29;20027;-82
2023/05/18 00:55:35;;;;;;;3.65;1.40;;;15.60;72.00;;;;;;4942826;29;20030;-82
2023/05/18 00:58:01;;;;;;;6.22;1.77;;;15.60;71.90;;;;;;4943186;29;20030;-82
2023/05/18 01:00:27;;;;;;;5.43;1.70;;;15.60;71.80;;;;;;4940591;29;20388;-81
2023/05/18 01:02:53;;;;;;;4.30;1.70;;;15.60;72.10;;;;;;4940626;29;20023;-81
2023/05/18 01:05:20;;;;;;;5.82;1.85;;;15.60;72.00;;;;;;4940005;29;20408;-82
2023/05/18 01:07:47;;;;;;;5.35;1.52;;;15.60;72.00;;;;;;4942429;29;20480;-82
2023/05/18 01:10:15;;;;;;;4.07;1.67;;;15.60;71.90;;;;;;4959805;29;20043;-81
2023/05/18 01:12:47;;;;;;;4.78;1.70;;;15.60;72.10;;;;;;4941970;29;20020;-83
2023/05/18 01:15:16;;;;;;;5.25;1.83;;;15.60;72.20;;;;;;4941918;29;20062;-81
2023/05/18 01:18:05;;;;;;;4.88;1.60;;;15.60;72.00;;;;;;4940178;29;20030;-81
2023/05/18 01:20:45;;;;;;;3.88;1.60;;;15.60;71.80;;;;;;4940763;29;20074;-82
2023/05/18 01:23:14;;;;;;;2.97;1.60;;;15.60;72.00;;;;;;4940779;29;20030;-82
2023/05/18 01:25:59;;;;;;;5.07;1.80;;;15.60;72.30;;;;;;4941650;29;20504;-82
2023/05/18 01:28:32;;;;;;;4.13;1.67;;;15.70;72.40;;;;;;4958662;29;20069;-82
2023/05/18 01:30:59;;;;;;;4.97;2.08;;;15.70;72.50;;;;;;4958873;29;20373;-84
2023/05/18 01:33:25;;;;;;;5.07;1.70;;;15.70;72.50;;;;;;4940904;29;20473;-79
2023/05/18 01:35:50;;;;;;;4.90;1.70;;;15.70;72.50;;;;;;4940832;29;20041;-82
2023/05/18 01:38:22;;;;;;;5.00;1.85;;;15.70;72.50;;;;;;4958270;29;20029;-83
2023/05/18 01:41:05;;;;;;;4.63;1.90;;;15.70;72.50;;;;;;4941024;29;20030;-82
2023/05/18 01:43:33;;;;;;;4.38;1.70;;;15.70;72.50;;;;;;4940295;29;20046;-81
2023/05/18 01:46:12;;;;;;;3.70;1.70;;;15.70;72.60;;;;;;4939209;29;20035;-81
2023/05/18 01:48:42;;;;;;;5.10;1.70;;;15.70;72.50;;;;;;4939099;29;20140;-81
2023/05/18 01:51:13;;;;;;;6.18;2.03;;;15.80;72.30;;;;;;4939117;29;20122;-83
2023/05/18 01:53:49;;;;;;;4.10;1.60;;;15.70;72.30;;;;;;4939064;29;20031;-80
2023/05/18 01:56:15;;;;;;;5.25;2.00;;;15.70;72.10;;;;;;4939023;29;20035;-83
2023/05/18 01:58:40;;;;;;;5.00;1.90;;;15.70;72.20;;;;;;4939197;29;20019;-82
2023/05/18 02:01:07;;;;;;;4.15;1.83;;;15.60;72.20;;;;;;4938899;29;20035;-81
2023/05/18 02:03:32;;;;;;;5.28;2.00;;;15.60;72.30;;;;;;4938654;29;20027;-81
2023/05/18 02:05:58;;;;;;;4.85;2.00;;;15.60;72.40;;;;;;4939094;29;20031;-81
2023/05/18 02:08:23;;;;;;;4.95;1.70;;;15.60;72.40;;;;;;4956175;29;20440;-81
2023/05/18 02:10:49;;;;;;;5.22;1.83;;;15.60;72.40;;;;;;4939004;29;20035;-81
2023/05/18 02:13:14;;;;;;;5.18;1.90;;;15.60;72.40;;;;;;4939148;29;20559;-79
2023/05/18 02:15:40;;;;;;;5.38;2.00;;;15.60;72.40;;;;;;4938797;29;20027;-82
2023/05/18 02:18:07;;;;;;;5.72;2.03;;;15.60;72.30;;;;;;4938561;29;20480;-81
2023/05/18 02:20:32;;;;;;;4.47;2.00;;;15.50;72.20;;;;;;4955848;29;20024;-82
2023/05/18 02:22:58;;;;;;;5.43;1.60;;;15.60;72.20;;;;;;4955991;29;20030;-80
2023/05/18 02:25:25;;;;;;;5.43;1.90;;;15.50;72.00;;;;;;4938344;29;20019;-82
2023/05/18 02:27:51;;;;;;;5.03;1.85;;;15.50;72.10;;;;;;4938070;29;20028;-83
2023/05/18 02:30:17;;;;;;;5.43;2.03;;;15.50;72.00;;;;;;4937829;29;20480;-81
2023/05/18 02:32:45;;;;;;;5.90;2.17;;;15.50;72.10;;;;;;4955623;29;20114;-84
2023/05/18 02:35:11;;;;;;;5.82;2.28;;;15.50;72.00;;;;;;4945441;29;20038;-84
2023/05/18 02:37:41;;;;;;;3.67;1.83;;;15.40;71.70;;;;;;4938529;29;20023;-82
2023/05/18 02:40:09;;;;;;;5.25;2.10;;;15.50;72.00;;;;;;4943021;29;20034;-83
2023/05/18 02:42:35;;;;;;;4.45;1.80;;;15.50;72.40;;;;;;4942568;29;20024;-84
2023/05/18 02:45:01;;;;;;;6.57;2.10;;;15.50;72.00;;;;;;4961913;29;20156;-83
2023/05/18 02:47:27;;;;;;;4.90;2.00;;;15.50;71.60;;;;;;4944629;29;20031;-83
2023/05/18 02:49:52;;;;;;;4.25;1.90;;;15.50;71.70;;;;;;4944942;29;20094;-83
2023/05/18 02:52:18;;;;;;;5.03;2.20;;;15.50;71.70;;;;;;4944291;29;20058;-84
2023/05/18 02:54:43;;;;;;;4.97;2.13;;;15.50;72.20;;;;;;4944033;29;20045;-82
2023/05/18 02:57:10;;;;;;;5.28;2.30;;;15.50;71.90;;;;;;4943794;29;20436;-84
2023/05/18 02:59:37;;;;;;;5.05;2.28;;;15.50;71.80;;;;;;4943837;29;20034;-83
2023/05/18 03:02:03;;;;;;;5.15;2.38;;;15.50;71.70;;;;;;4943391;29;20038;-85
2023/05/18 03:04:28;;;;;;;4.93;2.10;;;15.50;71.40;;;;;;4943396;29;20043;-82
2023/05/18 03:06:56;;;;;;;5.47;2.60;;;15.50;71.50;;;;;;4943247;29;20023;-82
2023/05/18 03:09:21;;;;;;;5.57;2.20;;;15.50;71.40;;;;;;4942678;29;20031;-82
2023/05/18 03:11:47;;;;;;;5.45;2.20;;;15.50;71.70;;;;;;4941963;29;20105;-83
2023/05/18 03:14:13;;;;;;;4.57;1.80;;;15.50;71.80;;;;;;4942051;29;20031;-82
2023/05/18 03:16:38;;;;;;;5.00;2.08;;;15.50;71.90;;;;;;4941936;29;20063;-83
2023/05/18 03:19:04;;;;;;;6.50;2.55;;;15.50;71.90;;;;;;4941316;29;20030;-83
2023/05/18 03:21:32;;;;;;;5.22;2.20;;;15.50;72.00;;;;;;4941563;29;20531;-83
2023/05/18 03:23:58;;;;;;;4.70;1.83;;;15.60;72.00;;;;;;4939876;29;20027;-82
2023/05/18 03:26:24;;;;;;;6.70;2.40;;;15.60;72.00;;;;;;4939398;29;20128;-84
2023/05/18 03:28:50;;;;;;;4.80;2.17;;;15.60;72.00;;;;;;4961608;29;20519;-85
2023/05/18 03:31:16;;;;;;;6.63;2.20;;;15.60;72.00;;;;;;4945174;29;20063;-84
2023/05/18 03:33:41;;;;;;;5.25;2.50;;;15.60;72.00;;;;;;4944816;29;20023;-83
2023/05/18 03:36:07;;;;;;;5.78;2.05;;;15.60;72.00;;;;;;4944748;29;20020;-83
2023/05/18 03:38:33;;;;;;;5.20;2.13;;;15.60;71.90;;;;;;4961567;29;20485;-84
2023/05/18 03:40:58;;;;;;;5.05;2.35;;;15.60;71.70;;;;;;4943852;29;20082;-82
2023/05/18 03:43:24;;;;;;;4.80;2.25;;;15.60;71.70;;;;;;4942679;29;20035;-80
2023/05/18 03:45:51;;;;;;;5.10;2.10;;;15.60;71.70;;;;;;4939857;29;20504;-82
2023/05/18 03:48:16;;;;;;;5.63;2.28;;;15.50;71.70;;;;;;4938913;29;20028;-83
2023/05/18 03:50:42;;;;;;;5.10;2.00;;;15.50;71.80;;;;;;4942787;29;20031;-83
2023/05/18 03:53:08;;;;;;;5.05;2.30;;;15.50;71.80;;;;;;4943001;29;20514;-82
2023/05/18 03:55:34;;;;;;;5.55;2.33;;;15.50;72.00;;;;;;4942364;29;20114;-82
2023/05/18 03:58:00;;;;;;;4.85;2.05;;;15.50;72.00;;;;;;4943125;29;20027;-82
2023/05/18 04:00:25;;;;;;;5.95;2.15;;;15.50;72.00;;;;;;4937601;29;20102;-82
2023/05/18 04:02:51;;;;;;;5.50;2.17;;;15.50;72.00;;;;;;4940396;29;20459;-82
2023/05/18 04:05:17;;;;;;;5.38;2.50;;;15.50;72.10;;;;;;4941404;29;20078;-83
2023/05/18 04:07:42;;;;;;;4.95;2.20;;;15.40;71.90;;;;;;4941350;29;20424;-83
2023/05/18 04:10:09;;;;;;;4.28;2.03;;;15.40;71.80;;;;;;4959058;29;20027;-82
2023/05/18 04:12:35;;;;;;;4.60;2.00;;;15.40;71.80;;;;;;4941357;29;20031;-85
2023/05/18 04:15:00;;;;;;;4.78;2.08;;;15.50;71.80;;;;;;4941067;29;20043;-83
2023/05/18 04:17:26;;;;;;;3.72;1.95;;;15.40;71.80;;;;;;4940621;29;20029;-83
2023/05/18 04:19:51;;;;;;;3.38;1.95;;;15.40;71.80;;;;;;4958252;29;20504;-82
2023/05/18 04:22:17;;;;;;;6.15;2.08;;;15.40;71.70;;;;;;4957722;29;20031;-81
2023/05/18 04:24:44;;;;;;;5.20;1.90;;;15.40;71.70;;;;;;4937050;29;20023;-82
2023/05/18 04:27:10;;;;;;;5.40;2.10;;;15.30;71.60;;;;;;4937313;29;20126;-82
2023/05/18 04:29:37;;;;;;;5.25;2.00;;;15.40;71.50;;;;;;4937347;29;20031;-82
2023/05/18 04:32:06;;;;;;;3.60;1.92;;;15.40;71.60;;;;;;4939695;29;20089;-81
2023/05/18 04:34:34;;;;;;;4.47;2.00;;;15.40;71.40;;;;;;4957187;29;20034;-81
2023/05/18 04:37:01;;;;;;;4.95;2.20;;;15.40;71.30;;;;;;4938856;29;20024;-82
2023/05/18 04:39:27;;;;;;;5.28;2.20;;;15.40;71.50;;;;;;4937006;29;20032;-81
2023/05/18 04:41:59;;;;;;;4.70;2.03;;;15.40;71.40;;;;;;4936342;29;20023;-82
2023/05/18 04:44:28;;;;;;;5.03;2.25;;;15.40;71.20;;;;;;4936727;29;20027;-81
2023/05/18 04:46:55;;;;;;;4.38;2.30;;;15.40;71.10;;;;;;4937681;29;20408;-82
2023/05/18 04:49:21;;;;;;;5.45;2.30;;;15.40;71.20;;;;;;4939291;29;20433;-82
2023/05/18 04:51:49;;;;;;;5.05;2.30;;;15.40;71.10;;;;;;4938853;29;20038;-83
2023/05/18 04:54:15;;;;;;;5.38;2.30;;;15.40;71.10;;;;;;4940189;29;20034;-84
2023/05/18 04:56:40;;;;;;;4.32;2.20;;;15.50;71.20;;;;;;4956209;29;20110;-82
2023/05/18 04:59:08;;;;;;;4.80;2.30;;;15.40;71.20;;;;;;4931377;29;20027;-82
2023/05/18 05:01:33;;;;;;;6.30;2.20;;;15.50;71.30;;;;;;4922934;29;20059;-81
2023/05/18 05:03:59;;;;;;;4.57;2.33;;;15.50;71.40;;;;;;4922390;29;20073;-81
2023/05/18 05:06:24;;;;;;;4.65;2.17;;;15.50;71.50;;;;;;4922665;29;20070;-82
2023/05/18 05:08:50;;;;;;;5.50;2.40;;;15.50;71.50;;;;;;4921764;29;20119;-81
2023/05/18 05:11:16;;;;;;;5.95;2.38;;;15.50;71.50;;;;;;4921253;29;20024;-82
2023/05/18 05:13:41;;;;;;;5.68;2.22;;;15.50;71.50;;;;;;4919963;29;20157;-79
2023/05/18 05:16:07;;;;;;;4.47;2.03;;;15.50;71.50;;;;;;4918793;29;20428;-75
2023/05/18 05:18:33;;;;;;;4.32;2.10;;;15.70;71.60;;;;;;4927597;29;20538;-81
2023/05/18 05:20:59;;;;;;;5.18;2.40;;;15.60;71.50;;;;;;4936168;29;20019;-76
2023/05/18 05:23:25;;;;;;;4.22;2.13;;;15.60;71.40;;;;;;4936147;29;20470;-78
2023/05/18 05:25:54;;;;;;;5.15;2.40;;;15.70;71.40;;;;;;4936919;29;20027;-77
2023/05/18 05:28:20;;;;;;;4.57;2.28;;;15.60;71.40;;;;;;4928165;29;20114;-78
2023/05/18 05:30:46;;;;;;;5.57;2.22;;;15.60;71.30;;;;;;4935924;29;20032;-80
2023/05/18 05:33:12;;;;;;;4.97;2.28;;;15.60;71.30;;;;;;4936370;29;20023;-76
2023/05/18 05:35:38;;;;;;;6.80;2.38;;;15.60;71.30;;;;;;4936334;29;20031;-77
2023/05/18 05:38:05;;;;;;;5.07;2.20;;;15.40;71.20;;;;;;4936545;29;20123;-77
2023/05/18 05:40:31;;;;;;;6.25;2.45;;;15.60;71.40;;;;;;4936406;29;20110;-76
2023/05/18 05:42:57;;;;;;;5.32;2.20;;;15.40;71.80;;;;;;4936124;29;20431;-77
2023/05/18 05:45:23;;;;;;;5.90;2.33;;;15.50;71.30;;;;;;4936121;29;20027;-81
2023/05/18 05:47:49;;;;;;;4.35;1.95;;;15.50;71.40;;;;;;4935881;29;20122;-78
2023/05/18 05:50:16;;;;;;;4.40;2.25;;;15.50;71.40;;;;;;4935770;29;20051;-77
2023/05/18 05:52:42;;;;;;;4.55;2.10;;;15.60;71.60;;;;;;4936271;29;20027;-79
2023/05/18 05:55:08;;;;;;;5.97;2.42;;;15.50;71.40;;;;;;4935852;29;20024;-77
2023/05/18 05:57:34;;;;;;;5.95;2.63;;;15.50;71.40;;;;;;4935999;29;20034;-77
2023/05/18 06:00:02;;;;;;;6.63;2.75;;;15.50;71.40;;;;;;4937013;29;20027;-78
2023/05/18 06:02:27;;;;;;;6.05;2.20;;;15.30;71.10;;;;;;4936461;29;20075;-77
2023/05/18 06:04:53;;;;;;;4.85;2.40;;;15.50;71.20;;;;;;4935315;29;20051;-78
2023/05/18 06:07:20;;;;;;;5.22;2.05;;;15.50;71.10;;;;;;4935460;29;20061;-77
2023/05/18 07:17:52;;;;;;;4.93;2.20;;;15.90;70.30;;;;;;4923007;29;20035;-77
2023/05/18 07:20:35;;;;;;;4.30;2.00;;;16.00;70.20;;;;;;4914555;29;20024;-76
2023/05/18 07:26:47;;;;;;;6.05;2.65;;;16.40;69.50;;;;;;4854590;29;20049;-81
2023/05/18 07:56:45;;;;;;;4.88;2.00;;;16.00;70.00;;;;;;4781601;29;20062;-82
2023/05/18 08:07:38;;;;;;;6.55;2.55;;;16.30;69.90;;;;;;4934341;29;20083;-80
2023/05/18 08:10:04;;;;;;;3.85;1.70;;;16.20;69.70;;;;;;4907823;29;20032;-80
2023/05/18 08:12:29;;;;;;;4.40;1.70;;;16.10;69.80;;;;;;4897809;29;20031;-80
2023/05/18 08:14:58;;;;;;;7.53;2.30;;;16.20;69.80;;;;;;4925414;29;20027;-80
2023/05/18 08:17:26;;;;;;;7.50;2.00;;;15.90;69.50;;;;;;4911191;29;20020;-83
2023/05/18 08:20:09;;;;;;;6.13;1.98;;;16.10;69.60;;;;;;4933107;29;20086;-83
2023/05/18 08:23:12;;;;;;;8.80;2.10;;;16.10;69.60;;;;;;4917580;29;20024;-80
2023/05/18 08:25:46;;;;;;;11.80;2.45;;;16.60;69.90;;;;;;4917716;29;20062;-81
2023/05/18 08:28:12;;;;;;;5.90;2.60;;;16.10;69.60;;;;;;4916616;29;20043;-79
2023/05/18 08:30:40;;;;;;;5.57;2.00;;;16.20;69.60;;;;;;4936574;29;20032;-78
2023/05/18 08:33:06;;;;;;;6.47;2.15;;;16.90;70.00;;;;;;4919683;29;20027;-79
2023/05/18 08:39:32;;;;;;;6.68;2.28;;;16.30;69.60;;;;;;4936157;29;20169;-80
2023/05/18 08:42:53;;;;;;;4.13;1.88;;;16.50;69.80;;;;;;4919970;29;20019;-77
2023/05/18 08:45:30;;;;;;;5.72;2.10;;;16.50;69.70;;;;;;4839395;29;20089;-75
2023/05/18 08:48:02;;;;;;;4.82;1.80;;;16.40;69.60;;;;;;4840453;29;20174;-77
2023/05/18 08:50:31;;;;;;;7.22;2.45;;;16.50;69.50;;;;;;4916664;29;20038;-77
2023/05/18 08:53:01;;;;;;;6.38;2.20;;;16.50;69.40;;;;;;4916581;29;20064;-76
2023/05/18 08:55:28;;;;;;;4.18;1.80;;;16.50;69.30;;;;;;4916583;29;20031;-79
2023/05/18 08:57:56;;;;;;;4.63;1.88;;;16.50;69.20;;;;;;4916464;29;20020;-76
2023/05/18 09:00:23;;;;;;;4.80;1.90;;;16.50;69.20;;;;;;4933727;29;20023;-77
2023/05/18 09:02:49;;;;;;;7.20;2.13;;;16.60;69.10;;;;;;4916154;29;20036;-76
2023/05/18 09:05:15;;;;;;;4.65;1.88;;;16.60;69.10;;;;;;4933335;29;20121;-79
2023/05/18 09:07:42;;;;;;;4.50;1.88;;;16.70;69.10;;;;;;4933229;29;20575;-76
2023/05/18 09:10:12;;;;;;;5.30;1.90;;;16.60;68.40;;;;;;4932786;29;20389;-76
2023/05/18 09:12:40;;;;;;;5.43;2.10;;;16.60;68.60;;;;;;4936464;29;20035;-79
2023/05/18 09:15:08;;;;;;;5.18;2.05;;;16.60;69.40;;;;;;4900562;29;20180;-75
2023/05/18 09:17:34;;;;;;;7.38;1.90;;;16.60;69.30;;;;;;4926565;29;20027;-79
2023/05/18 09:19:59;;;;;;;3.78;1.80;;;16.60;69.40;;;;;;4937481;29;20079;-79
2023/05/18 09:22:25;;;;;;;5.47;1.88;;;16.60;69.40;;;;;;4920503;29;20401;-79
2023/05/18 09:24:51;;;;;;;4.57;2.05;;;16.60;69.50;;;;;;4920077;29;20038;-79
2023/05/18 09:27:16;;;;;;;5.15;1.88;;;16.50;69.50;;;;;;4937191;29;20177;-79
2023/05/18 09:29:56;;;;;;;4.75;1.90;;;16.60;69.40;;;;;;4920593;29;20031;-79
2023/05/18 09:32:22;;;;;;;9.27;2.13;;;16.50;69.50;;;;;;4920071;29;20111;-79
2023/05/18 09:34:48;;;;;;;75.10;7.15;;;16.60;69.60;;;;;;4919637;29;20028;-79
2023/05/18 09:37:20;;;;;;;37.47;4.35;;;16.50;65.60;;;;;;4935121;29;20035;-80
2023/05/18 09:40:06;;;;;;;21.33;3.28;;;16.20;61.80;;;;;;4919310;29;20027;-80
2023/05/18 09:42:36;;;;;;;11.27;2.95;;;16.00;60.80;;;;;;4919746;29;20039;-79
2023/05/18 09:45:03;;;;;;;10.68;2.78;;;15.90;60.20;;;;;;4924519;29;20032;-81
2023/05/18 09:47:29;;;;;;;12.15;2.75;;;15.90;60.20;;;;;;4924649;29;20245;-81
2023/05/18 09:49:57;;;;;;;8.95;2.47;;;15.80;60.10;;;;;;4941722;29;20409;-80
2023/05/18 09:52:23;;;;;;;10.98;2.92;;;15.70;59.90;;;;;;4941126;29;20096;-82
2023/05/18 09:54:58;;;;;;;9.35;2.70;;;15.70;59.50;;;;;;4941517;29;20369;-80
2023/05/18 09:57:24;;;;;;;10.60;3.00;;;15.70;59.70;;;;;;4924491;29;20580;-80
2023/05/18 10:00:04;;;;;;;11.35;3.03;;;15.70;59.70;;;;;;4924406;29;20059;-80
2023/05/18 10:02:29;;;;;;;10.30;2.93;;;15.70;59.70;;;;;;4924294;29;20059;-80
2023/05/18 10:04:56;;;;;;;8.98;2.90;;;15.70;59.80;;;;;;4940806;29;20632;-79
2023/05/18 10:07:21;;;;;;;9.10;2.40;;;15.70;59.90;;;;;;4941037;29;20151;-80
2023/05/18 10:10:00;;;;;;;8.75;2.90;;;15.70;60.00;;;;;;4922990;29;20079;-80
2023/05/18 10:12:26;;;;;;;10.18;2.50;;;15.70;60.00;;;;;;4922803;29;20047;-81
2023/05/18 10:14:51;;;;;;;10.80;2.72;;;15.60;59.80;;;;;;4939696;29;20031;-80
2023/05/18 10:17:17;;;;;;;10.10;2.72;;;15.60;59.60;;;;;;4922737;29;20028;-80
2023/05/18 10:19:44;;;;;;;9.38;2.95;;;15.60;59.50;;;;;;4939466;29;20023;-80
2023/05/18 10:22:11;;;;;;;7.95;2.60;;;15.60;59.40;;;;;;4917893;29;20028;-78
2023/05/18 10:24:40;;;;;;;9.30;2.90;;;15.60;59.30;;;;;;4927689;29;20055;-79
2023/05/18 10:27:08;;;;;;;9.07;3.10;;;15.60;59.60;;;;;;4920740;29;20027;-78
2023/05/18 10:29:36;;;;;;;8.38;2.70;;;15.60;59.60;;;;;;4921582;29;20497;-79
2023/05/18 10:32:02;;;;;;;7.07;2.60;;;15.60;60.50;;;;;;4919678;29;20035;-80
2023/05/18 10:34:29;;;;;;;7.75;2.67;;;15.60;60.30;;;;;;4920316;29;20039;-80
2023/05/18 10:36:56;;;;;;;11.20;3.00;;;15.60;59.60;;;;;;4921953;29;20047;-80
2023/05/18 10:39:22;;;;;;;10.02;3.10;;;15.50;59.10;;;;;;4941202;29;20092;-80
2023/05/18 10:41:50;;;;;;;7.88;2.60;;;15.50;59.80;;;;;;4941974;29;20030;-80
2023/05/18 10:44:16;;;;;;;7.13;2.60;;;15.50;59.60;;;;;;4941238;29;20057;-80
2023/05/18 10:46:42;;;;;;;11.02;3.15;;;15.50;59.00;;;;;;4924443;29;20032;-80
2023/05/18 10:49:12;;;;;;;9.05;2.63;;;15.60;59.30;;;;;;4923633;29;20066;-81
2023/05/18 10:51:42;;;;;;;9.50;3.42;;;15.60;58.70;;;;;;4935536;29;20036;-77
2023/05/18 10:54:14;;;;;;;9.10;3.10;;;15.60;58.70;;;;;;4935261;29;20028;-78
2023/05/18 10:56:43;;;;;;;;;;;15.70;59.40;;;;;;4918786;29;20673;-76
2023/05/18 10:59:09;;;;;;;8.23;2.97;;;15.70;59.20;;;;;;4921754;29;19949;-80
2023/05/18 11:01:36;;;;;;;13.05;2.85;;;15.70;58.80;;;;;;4923049;29;20028;-80
2023/05/18 11:04:03;;;;;;;11.55;2.90;;;15.70;59.40;;;;;;4938514;29;20043;-78
2023/05/18 11:06:30;;;;;;;7.43;2.83;;;15.60;59.20;;;;;;4935655;29;20039;-79
2023/05/18 11:08:55;;;;;;;9.70;2.78;;;15.60;59.60;;;;;;4936026;29;20461;-78
2023/05/18 11:11:28;;;;;;;9.60;3.00;;;15.60;60.00;;;;;;4921022;29;20035;-79
2023/05/18 11:14:00;;;;;;;7.38;2.88;;;15.60;60.00;;;;;;4939666;29;20497;-80
2023/05/18 11:16:34;;;;;;;8.57;2.60;;;15.50;60.10;;;;;;4938657;29;20055;-75
2023/05/18 11:19:08;;;;;;;9.10;2.92;;;15.50;60.30;;;;;;4935061;29;20110;-75
2023/05/18 11:21:40;;;;;;;14.90;3.30;;;15.60;60.50;;;;;;4936486;29;20027;-80
2023/05/18 11:24:29;;;;;;;7.18;2.63;;;15.70;60.30;;;;;;4921555;29;20055;-79
2023/05/18 11:27:02;;;;;;;10.23;2.80;;;15.80;60.40;;;;;;4935900;29;20501;-76
2023/05/18 11:29:36;;;;;;;9.95;3.08;;;15.90;60.60;;;;;;4936918;29;20472;-78
2023/05/18 11:32:02;;;;;;;7.55;2.72;;;16.00;60.70;;;;;;4935247;29;20027;-78
2023/05/18 11:34:48;;;;;;;7.97;2.60;;;16.00;60.60;;;;;;4917788;29;20051;-78
2023/05/18 11:37:35;;;;;;;7.88;2.78;;;16.00;60.80;;;;;;4921101;29;20019;-79
2023/05/18 11:40:01;;;;;;;7.80;2.50;;;16.10;61.60;;;;;;4937743;29;20438;-80
2023/05/18 11:42:35;;;;;;;6.57;2.35;;;16.10;61.40;;;;;;4919433;29;20020;-78
2023/05/18 11:45:11;;;;;;;10.02;2.38;;;16.10;61.40;;;;;;4934404;29;20046;-78
2023/05/18 11:47:39;;;;;;;7.88;2.40;;;16.10;61.60;;;;;;4935215;29;20039;-78
2023/05/18 11:50:10;;;;;;;6.95;2.30;;;16.10;61.70;;;;;;4917523;29;20035;-78
2023/05/18 11:52:47;;;;;;;6.80;2.35;;;16.10;62.40;;;;;;4918073;29;20074;-78
2023/05/18 11:55:15;;;;;;;7.55;2.40;;;16.10;62.00;;;;;;4917458;29;20120;-76
2023/05/18 11:57:44;;;;;;;7.65;2.20;;;16.10;62.30;;;;;;4918529;29;20028;-78
2023/05/18 12:00:10;;;;;;;6.25;2.40;;;16.20;62.50;;;;;;4935071;29;20041;-78
2023/05/18 12:02:36;;;;;;;5.40;2.20;;;16.10;62.50;;;;;;4935567;29;20028;-78
2023/05/18 12:05:07;;;;;;;7.18;2.50;;;16.10;62.60;;;;;;4938488;29;20469;-78
2023/05/18 12:07:37;;;;;;;6.65;2.75;;;16.10;62.80;;;;;;4922636;29;20031;-78
2023/05/18 12:10:16;;;;;;;6.78;2.15;;;16.10;63.00;;;;;;4939520;29;20377;-78
2023/05/18 12:12:42;;;;;;;7.20;2.28;;;16.10;63.00;;;;;;4922389;29;20062;-79
2023/05/18 12:15:10;;;;;;;7.25;2.25;;;16.10;63.20;;;;;;4922475;29;20024;-78
2023/05/18 12:17:46;;;;;;;6.07;2.00;;;16.20;63.40;;;;;;4922554;29;20493;-79
2023/05/18 12:20:14;;;;;;;5.60;2.10;;;16.10;63.70;;;;;;4939536;29;20087;-79
2023/05/18 12:22:40;;;;;;;5.95;2.10;;;16.10;64.10;;;;;;4922401;29;20122;-76
2023/05/18 12:25:07;;;;;;;4.78;2.00;;;16.10;63.90;;;;;;4939205;29;20027;-78
2023/05/18 12:27:43;;;;;;;6.82;2.45;;;16.10;64.00;;;;;;4921575;29;20031;-79
2023/05/18 12:30:11;;;;;;;4.75;1.92;;;16.10;64.00;;;;;;4921340;29;20043;-79
2023/05/18 12:32:37;;;;;;;5.97;2.17;;;16.20;64.10;;;;;;4921205;29;20031;-78
2023/05/18 12:35:04;;;;;;;6.13;2.13;;;16.20;64.10;;;;;;4938058;29;20023;-78
2023/05/18 12:37:30;;;;;;;5.60;2.10;;;16.20;64.10;;;;;;4939076;29;20492;-78
2023/05/18 12:39:56;;;;;;;5.55;2.13;;;16.20;64.10;;;;;;4921677;29;20027;-78
2023/05/18 12:42:21;;;;;;;6.07;2.33;;;16.30;64.20;;;;;;4939132;29;20333;-77
2023/05/18 12:44:49;;;;;;;6.35;2.22;;;16.20;64.10;;;;;;4921317;29;20123;-79
2023/05/18 12:47:14;;;;;;;4.65;1.90;;;16.20;64.30;;;;;;4921060;29;20023;-78
2023/05/18 12:49:42;;;;;;;5.63;2.28;;;16.20;64.30;;;;;;4938147;29;20111;-78
2023/05/18 12:52:10;;;;;;;7.43;2.22;;;16.20;64.40;;;;;;4920845;29;20028;-78
2023/05/18 12:54:35;;;;;;;6.60;2.20;;;16.20;64.50;;;;;;4921037;29;20032;-79
2023/05/18 12:57:06;;;;;;;6.13;2.00;;;16.20;65.00;;;;;;4937500;29;20481;-79
2023/05/18 12:59:31;;;;;;;5.10;2.08;;;16.20;64.70;;;;;;4920606;29;20096;-79
2023/05/18 13:01:57;;;;;;;6.18;1.80;;;16.20;64.60;;;;;;4920309;29;20028;-78
2023/05/18 13:04:34;;;;;;;3.65;1.83;;;16.20;64.50;;;;;;4920183;29;20578;-79
2023/05/18 13:06:59;;;;;;;6.25;2.30;;;16.10;65.20;;;;;;4907216;29;20161;-79
2023/05/18 13:09:25;;;;;;;5.25;2.05;;;16.10;64.80;;;;;;4901821;29;20056;-79
2023/05/18 13:11:51;;;;;;;4.95;1.67;;;16.10;65.00;;;;;;4901587;29;20020;-79
2023/05/18 13:14:20;;;;;;;3.88;1.70;;;16.10;65.10;;;;;;4900565;29;20028;-79
2023/05/18 13:16:50;;;;;;;4.10;1.88;;;16.00;65.30;;;;;;4918542;29;20030;-79
2023/05/18 13:19:17;;;;;;;5.30;2.00;;;16.00;65.60;;;;;;4918542;29;20028;-79
2023/05/18 13:21:44;;;;;;;5.38;1.90;;;16.00;65.70;;;;;;4901365;29;20119;-79
2023/05/18 13:24:09;;;;;;;4.68;2.00;;;16.00;65.80;;;;;;4917478;29;20446;-79
2023/05/18 13:26:35;;;;;;;6.20;2.20;;;16.00;65.90;;;;;;4905096;29;20028;-80
2023/05/18 13:29:00;;;;;;;3.65;1.55;;;16.00;66.00;;;;;;4907095;29;20055;-80
2023/05/18 13:31:28;;;;;;;4.10;1.90;;;16.00;66.20;;;;;;4906500;29;20039;-80
2023/05/18 13:33:53;;;;;;;5.45;2.00;;;16.00;66.20;;;;;;4923140;29;20107;-79
2023/05/18 13:36:19;;;;;;;3.45;1.65;;;16.00;66.30;;;;;;4906095;29;20060;-80
2023/05/18 13:38:45;;;;;;;6.38;2.28;;;16.00;66.40;;;;;;4923779;29;20016;-79
2023/05/18 13:41:13;;;;;;;4.75;1.80;;;16.00;66.50;;;;;;4905383;29;20083;-79
2023/05/18 13:43:39;;;;;;;5.47;2.38;;;16.00;66.50;;;;;;4922781;29;20244;-80
2023/05/18 13:46:05;;;;;;;4.65;2.00;;;15.90;66.50;;;;;;4906099;29;20052;-79
2023/05/18 13:48:30;;;;;;;4.28;2.00;;;15.90;66.60;;;;;;4922813;29;20097;-79
2023/05/18 13:50:56;;;;;;;4.70;2.00;;;16.00;66.70;;;;;;4904965;29;20017;-79
2023/05/18 13:53:22;;;;;;;4.40;1.80;;;15.90;66.60;;;;;;4921760;29;20032;-79
2023/05/18 13:55:48;;;;;;;4.38;1.92;;;15.90;66.70;;;;;;4921992;29;20103;-78
2023/05/18 13:58:13;;;;;;;5.00;1.90;;;15.90;66.80;;;;;;4921739;29;20092;-79
2023/05/18 14:00:40;;;;;;;4.10;1.77;;;15.90;66.80;;;;;;4921829;29;20028;-79
2023/05/18 14:03:06;;;;;;;4.32;1.83;;;15.90;66.80;;;;;;4931044;29;20488;-77
2023/05/18 14:05:31;;;;;;;3.58;1.83;;;15.90;66.80;;;;;;4939993;29;20042;-79
2023/05/18 14:07:57;;;;;;;5.32;1.90;;;15.90;66.90;;;;;;4937753;29;20024;-78
2023/05/18 14:10:22;;;;;;;4.07;1.95;;;15.90;67.00;;;;;;4937119;29;20031;-79
2023/05/18 14:12:48;;;;;;;3.90;1.63;;;15.90;67.10;;;;;;4940059;29;20496;-79
2023/05/18 14:15:13;;;;;;;4.25;1.75;;;15.90;67.10;;;;;;4921480;29;20051;-80
2023/05/18 14:17:40;;;;;;;4.10;1.90;;;15.90;67.10;;;;;;4939750;29;20500;-79
2023/05/18 14:20:06;;;;;;;4.78;1.92;;;15.90;67.20;;;;;;4923958;29;20097;-81
2023/05/18 14:22:32;;;;;;;5.05;1.80;;;15.90;67.20;;;;;;4942167;29;20059;-79
2023/05/18 14:24:58;;;;;;;3.97;1.70;;;15.90;67.30;;;;;;4941363;29;20035;-79
2023/05/18 14:27:24;;;;;;;3.33;1.77;;;15.90;67.80;;;;;;4923269;29;20032;-80
2023/05/18 14:29:50;;;;;;;4.30;1.75;;;15.90;67.30;;;;;;4941774;29;20055;-80
2023/05/18 14:32:16;;;;;;;5.28;1.98;;;15.90;67.30;;;;;;4941538;29;20051;-79
2023/05/18 14:34:42;;;;;;;3.25;1.60;;;15.90;67.20;;;;;;4923770;29;20082;-80
2023/05/18 14:37:07;;;;;;;5.75;1.90;;;16.00;67.20;;;;;;4923323;29;20501;-79
2023/05/18 14:39:33;;;;;;;4.57;1.80;;;16.00;67.10;;;;;;4924038;29;20141;-80
2023/05/18 14:41:59;;;;;;;3.47;1.60;;;16.00;67.10;;;;;;4940770;29;20032;-79